createdAt,value
2022-09-12T00:01:21.455Z,10.73
2022-09-12T00:03:51.304Z,6.82
2022-09-12T00:06:23.117Z,11.88
2022-09-12T00:09:02.028Z,9.60
2022-09-12T00:11:29.528Z,8.27
2022-09-12T00:13:59.358Z,39.85
2022-09-12T00:16:28.312Z,11.25
2022-09-12T00:18:55.395Z,11.05
2022-09-12T00:21:23.624Z,8.38
2022-09-12T00:23:51.138Z,14.85
2022-09-12T00:26:21.424Z,8.55
2022-09-12T00:28:49.109Z,5.28
2022-09-12T00:31:21.612Z,8.35
2022-09-12T00:33:48.618Z,6.15
2022-09-12T00:36:19.473Z,8.13
2022-09-12T00:38:50.181Z,7.30
2022-09-12T00:41:32.534Z,5.78
2022-09-12T00:44:20.687Z,9.23
2022-09-12T00:47:00.943Z,9.05
2022-09-12T00:52:13.948Z,6.07
2022-09-12T00:55:01.654Z,9.13
2022-09-12T00:57:34.457Z,4.90
2022-09-12T01:00:22.161Z,11.70
2022-09-12T01:02:58.643Z,8.38
2022-09-12T01:05:28.704Z,6.50
2022-09-12T01:07:57.170Z,10.27
2022-09-12T01:10:24.846Z,6.80
2022-09-12T01:12:52.129Z,9.55
2022-09-12T01:15:19.270Z,7.45
2022-09-12T01:18:26.827Z,6.40
2022-09-12T01:21:01.184Z,6.38
2022-09-12T01:23:58.968Z,11.40
2022-09-12T01:26:31.607Z,6.50
2022-09-12T01:29:23.250Z,10.25
2022-09-12T01:32:05.765Z,8.05
2022-09-12T01:34:35.639Z,10.85
2022-09-12T01:37:25.210Z,11.52
2022-09-12T01:40:04.368Z,8.02
2022-09-12T01:42:31.144Z,10.25
2022-09-12T01:45:16.281Z,11.93
2022-09-12T01:48:27.457Z,11.50
2022-09-12T01:51:02.660Z,7.85
2022-09-12T01:54:04.014Z,10.30
2022-09-12T01:56:36.030Z,10.93
2022-09-12T01:59:09.214Z,11.98
2022-09-12T02:01:46.856Z,8.82
2022-09-12T02:04:21.160Z,8.35
2022-09-12T02:07:31.730Z,11.52
2022-09-12T02:10:16.800Z,10.13
2022-09-12T02:12:57.821Z,9.73
2022-09-12T02:15:32.842Z,13.57
2022-09-12T02:18:02.576Z,13.13
2022-09-12T02:20:47.963Z,8.40
2022-09-12T02:23:24.768Z,9.90
2022-09-12T02:25:56.447Z,9.60
2022-09-12T02:28:38.668Z,15.05
2022-09-12T02:31:13.995Z,11.82
2022-09-12T02:34:03.630Z,10.77
2022-09-12T02:36:52.105Z,8.77
2022-09-12T02:39:21.275Z,12.25
2022-09-12T02:41:51.870Z,11.15
2022-09-12T02:44:19.884Z,9.35
2022-09-12T02:46:55.303Z,11.60
2022-09-12T02:49:22.620Z,10.63
2022-09-12T02:51:52.184Z,12.75
2022-09-12T02:54:21.364Z,11.90
2022-09-12T02:56:48.378Z,12.35
2022-09-12T02:59:19.690Z,11.80
2022-09-12T03:02:17.364Z,14.48
2022-09-12T03:05:08.290Z,11.05
2022-09-12T03:07:44.196Z,18.77
2022-09-12T03:10:36.755Z,10.70
2022-09-12T03:13:15.871Z,12.57
2022-09-12T03:16:10.749Z,10.05
2022-09-12T03:19:02.167Z,13.90
2022-09-12T03:21:40.262Z,10.65
2022-09-12T03:24:19.490Z,12.80
2022-09-12T03:26:46.228Z,9.50
2022-09-12T03:29:15.145Z,12.30
2022-09-12T03:31:50.527Z,7.70
2022-09-12T03:34:17.927Z,10.45
2022-09-12T03:36:44.757Z,11.52
2022-09-12T03:39:11.641Z,10.60
2022-09-12T03:41:38.388Z,9.43
2022-09-12T03:44:05.158Z,13.07
2022-09-12T03:46:32.636Z,14.10
2022-09-12T03:48:59.381Z,14.35
2022-09-12T03:51:26.204Z,10.63
2022-09-12T03:53:53.053Z,12.32
2022-09-12T03:56:20.952Z,14.50
2022-09-12T03:58:47.961Z,15.55
2022-09-12T04:01:18.028Z,13.68
2022-09-12T04:03:49.548Z,13.30
2022-09-12T04:06:20.376Z,13.85
2022-09-12T04:08:52.223Z,12.98
2022-09-12T04:11:21.097Z,14.85
2022-09-12T04:13:48.374Z,15.80
2022-09-12T04:16:20.591Z,14.30
2022-09-12T04:18:47.848Z,11.75
2022-09-12T04:21:20.327Z,12.60
2022-09-12T04:23:47.295Z,13.23
2022-09-12T04:26:18.037Z,11.65
2022-09-12T04:28:46.590Z,13.85
2022-09-12T04:31:17.892Z,12.85
2022-09-12T04:33:45.471Z,15.02
2022-09-12T04:36:16.893Z,11.98
2022-09-12T04:38:45.786Z,19.95
2022-09-12T04:41:12.621Z,17.20
2022-09-12T04:43:40.171Z,11.57
2022-09-12T04:46:12.333Z,9.77
2022-09-12T04:48:39.367Z,12.30
2022-09-12T04:51:14.152Z,10.75
2022-09-12T04:53:42.397Z,10.32
2022-09-12T04:56:11.665Z,11.88
2022-09-12T04:58:38.811Z,9.90
2022-09-12T05:01:06.327Z,11.02
2022-09-12T05:03:34.227Z,11.07
2022-09-12T05:06:05.714Z,8.10
2022-09-12T05:08:34.330Z,12.95
2022-09-12T05:11:07.011Z,10.80
2022-09-12T05:13:34.498Z,14.18
2022-09-12T05:16:04.411Z,7.80
2022-09-12T05:18:33.302Z,18.30
2022-09-12T05:21:01.196Z,11.07
2022-09-12T05:23:28.719Z,15.02
2022-09-12T05:25:57.891Z,11.35
2022-09-12T05:28:29.326Z,12.65
2022-09-12T05:31:24.008Z,18.30
2022-09-12T05:33:52.622Z,14.38
2022-09-12T05:36:22.579Z,11.93
2022-09-12T05:38:49.789Z,9.07
2022-09-12T05:41:22.970Z,10.00
2022-09-12T05:43:53.622Z,7.45
2022-09-12T05:46:23.162Z,7.32
2022-09-12T05:48:55.648Z,12.43
2022-09-12T05:51:26.618Z,7.82
2022-09-12T05:53:56.873Z,10.30
2022-09-12T05:59:00.571Z,7.97
2022-09-12T06:01:28.677Z,10.65
2022-09-12T06:03:58.187Z,17.13
2022-09-12T06:06:25.637Z,11.48
2022-09-12T06:08:54.211Z,7.05
2022-09-12T06:11:24.894Z,10.95
2022-09-12T06:13:52.589Z,9.95
2022-09-12T06:16:24.779Z,7.85
2022-09-12T06:18:56.472Z,8.40
2022-09-12T06:21:24.750Z,10.77
2022-09-12T06:23:51.745Z,12.70
2022-09-12T06:26:21.703Z,11.02
2022-09-12T06:28:48.956Z,12.43
2022-09-12T06:31:29.007Z,12.60
2022-09-12T06:33:56.815Z,17.35
2022-09-12T06:36:26.823Z,11.45
2022-09-12T06:39:04.818Z,12.38
2022-09-12T06:41:32.861Z,11.23
2022-09-12T06:44:00.996Z,9.50
2022-09-12T06:46:28.710Z,11.85
2022-09-12T06:49:01.374Z,10.77
2022-09-12T06:51:29.328Z,13.68
2022-09-12T06:53:57.691Z,11.68
2022-09-12T06:56:27.049Z,12.48
2022-09-12T06:58:56.822Z,10.17
2022-09-12T07:01:26.903Z,10.15
2022-09-12T07:03:58.464Z,10.13
2022-09-12T07:06:31.981Z,9.07
2022-09-12T07:09:00.066Z,9.68
2022-09-12T07:11:31.998Z,12.25
2022-09-12T07:14:00.680Z,9.88
2022-09-12T07:16:28.183Z,7.45
2022-09-12T07:18:57.679Z,7.55
2022-09-12T07:21:24.744Z,11.52
2022-09-12T07:23:58.237Z,10.15
2022-09-12T07:26:29.720Z,7.38
2022-09-12T07:29:12.818Z,18.55
2022-09-12T07:31:45.998Z,10.95
2022-09-12T07:34:14.036Z,13.35
2022-09-12T07:36:40.814Z,5.85
2022-09-12T07:39:07.645Z,9.73
2022-09-12T07:41:34.737Z,6.63
2022-09-12T07:44:02.958Z,8.98
2022-09-12T07:46:31.529Z,11.82
2022-09-12T07:49:00.593Z,7.57
2022-09-12T07:51:29.692Z,8.75
2022-09-12T07:53:56.767Z,6.03
2022-09-12T07:56:29.357Z,7.22
2022-09-12T07:58:56.991Z,6.45
2022-09-12T08:01:24.123Z,5.80
2022-09-12T08:03:57.235Z,8.00
2022-09-12T08:06:25.363Z,9.38
2022-09-12T08:08:59.468Z,9.00
2022-09-12T08:11:28.384Z,8.38
2022-09-12T08:13:57.852Z,13.63
2022-09-12T08:16:30.314Z,7.53
2022-09-12T08:18:57.537Z,9.68
2022-09-12T08:21:32.358Z,10.65
2022-09-12T08:24:04.803Z,9.30
2022-09-12T08:26:33.472Z,12.10
2022-09-12T08:29:01.166Z,8.68
2022-09-12T08:31:28.582Z,11.05
2022-09-12T08:33:57.381Z,8.35
2022-09-12T08:36:27.474Z,9.63
2022-09-12T08:38:59.590Z,9.65
2022-09-12T08:41:35.040Z,9.73
2022-09-12T08:44:14.468Z,15.13
2022-09-12T08:47:06.303Z,10.30
2022-09-12T08:49:41.170Z,11.88
2022-09-12T08:52:32.984Z,11.23
2022-09-12T08:55:01.891Z,13.00
2022-09-12T08:57:29.999Z,10.68
2022-09-12T08:59:57.214Z,11.07
2022-09-12T09:02:38.566Z,12.13
2022-09-12T09:05:16.453Z,16.25
2022-09-12T09:08:13.756Z,10.05
2022-09-12T09:10:53.736Z,13.55
2022-09-12T09:14:10.789Z,12.57
2022-09-12T09:16:44.204Z,9.27
2022-09-12T09:19:17.720Z,12.93
2022-09-12T09:21:51.659Z,9.70
2022-09-12T09:24:22.269Z,17.35
2022-09-12T09:26:58.380Z,10.35
2022-09-12T09:29:30.728Z,12.77
2022-09-12T09:32:03.494Z,14.82
2022-09-12T09:34:34.556Z,12.93
2022-09-12T09:37:34.407Z,14.82
2022-09-12T09:40:03.933Z,14.18
2022-09-12T09:42:36.705Z,19.50
2022-09-12T09:45:14.857Z,18.08
2022-09-12T09:47:42.203Z,15.40
2022-09-12T09:50:16.725Z,13.27
2022-09-12T09:52:44.256Z,15.43
2022-09-12T09:55:17.875Z,11.35
2022-09-12T09:57:46.819Z,16.33
2022-09-12T10:00:27.201Z,18.42
2022-09-12T10:03:13.531Z,17.60
2022-09-12T10:05:53.016Z,16.45
2022-09-12T10:08:35.398Z,18.00
2022-09-12T10:11:23.313Z,24.65
2022-09-12T10:13:56.984Z,21.55
2022-09-12T10:16:35.591Z,17.10
2022-09-12T10:19:04.226Z,31.45
2022-09-12T10:21:41.277Z,19.02
2022-09-12T10:24:36.662Z,20.67
2022-09-12T10:27:20.853Z,19.00
2022-09-12T10:29:54.663Z,26.60
2022-09-12T10:32:30.649Z,19.02
2022-09-12T10:35:01.777Z,28.95
2022-09-12T10:37:39.715Z,25.13
2022-09-12T10:40:20.633Z,24.20
2022-09-12T10:42:53.511Z,27.23
2022-09-12T10:45:25.039Z,28.92
2022-09-12T10:47:54.229Z,24.48
2022-09-12T10:50:22.985Z,26.77
2022-09-12T10:52:50.087Z,21.45
2022-09-12T10:55:17.143Z,23.88
2022-09-12T10:58:01.327Z,24.50
2022-09-12T11:00:30.586Z,31.15
2022-09-12T11:03:34.717Z,32.00
2022-09-12T11:06:05.251Z,27.13
2022-09-12T11:08:55.723Z,27.00
2022-09-12T11:11:37.552Z,31.60
2022-09-12T11:14:04.242Z,22.58
2022-09-12T11:16:54.836Z,28.10
2022-09-12T11:19:33.986Z,28.83
2022-09-12T11:22:19.377Z,28.33
2022-09-12T11:25:09.383Z,29.52
2022-09-12T11:31:02.159Z,23.33
2022-09-12T11:34:02.189Z,26.48
2022-09-12T11:36:47.385Z,22.10
2022-09-12T11:39:23.593Z,20.92
2022-09-12T11:41:57.671Z,24.45
2022-09-12T11:44:40.333Z,23.52
2022-09-12T11:47:14.721Z,21.52
2022-09-12T11:49:47.256Z,29.65
2022-09-12T11:52:23.994Z,33.45
2022-09-12T11:55:17.206Z,28.98
2022-09-12T11:57:48.213Z,23.58
2022-09-12T12:00:26.823Z,27.75
2022-09-12T12:03:24.244Z,24.08
2022-09-12T12:05:57.767Z,29.02
2022-09-12T12:08:27.731Z,26.17
2022-09-12T12:13:29.930Z,23.02
2022-09-12T12:16:13.850Z,30.60
2022-09-12T12:18:43.325Z,24.60
2022-09-12T12:21:31.491Z,20.67
2022-09-12T12:24:14.312Z,26.15
2022-09-12T12:26:40.998Z,27.13
2022-09-12T12:29:17.578Z,26.88
2022-09-12T12:31:59.655Z,26.65
2022-09-12T12:34:46.681Z,30.23
2022-09-12T12:37:19.792Z,23.50
2022-09-12T12:40:01.111Z,29.08
2022-09-12T12:42:30.891Z,24.52
2022-09-12T12:44:58.556Z,22.40
2022-09-12T12:47:50.389Z,29.15
2022-09-12T12:50:17.094Z,22.85
2022-09-12T12:52:49.953Z,22.80
2022-09-12T12:55:34.261Z,23.23
2022-09-12T12:58:06.197Z,28.27
2022-09-12T13:00:37.051Z,28.10
2022-09-12T13:03:07.102Z,21.02
2022-09-12T13:08:17.356Z,22.15
2022-09-12T13:11:08.804Z,26.90
2022-09-12T13:13:52.527Z,23.42
2022-09-12T13:16:39.972Z,25.15
2022-09-12T13:19:17.939Z,20.90
2022-09-12T13:22:10.704Z,28.30
2022-09-12T13:24:53.017Z,21.63
2022-09-12T13:27:25.709Z,20.13
2022-09-12T13:30:29.406Z,19.30
2022-09-12T13:32:59.321Z,18.30
2022-09-12T13:35:52.287Z,25.33
2022-09-12T13:39:03.688Z,20.10
2022-09-12T13:41:51.900Z,16.58
2022-09-12T13:44:21.989Z,19.00
2022-09-12T13:52:21.479Z,14.95
2022-09-12T13:54:51.468Z,14.32
2022-09-12T13:57:28.680Z,15.70
2022-09-12T13:59:58.051Z,20.67
2022-09-12T14:02:28.917Z,22.85
2022-09-12T14:05:11.529Z,18.77
2022-09-12T14:08:15.398Z,12.00
2022-09-12T14:10:45.419Z,13.10
2022-09-12T14:15:58.788Z,13.68
2022-09-12T14:18:29.057Z,13.95
2022-09-12T14:21:01.058Z,12.25
2022-09-12T14:23:33.138Z,12.35
2022-09-12T14:26:06.660Z,17.23
2022-09-12T14:28:34.666Z,13.15
2022-09-12T14:31:26.905Z,10.90
2022-09-12T14:34:09.712Z,8.85
2022-09-12T14:36:36.562Z,8.73
2022-09-12T14:39:07.586Z,11.60
2022-09-12T14:41:41.141Z,9.55
2022-09-12T14:44:15.549Z,7.00
2022-09-12T14:46:43.743Z,14.27
2022-09-12T14:49:21.254Z,12.10
2022-09-12T14:51:51.415Z,9.18
2022-09-12T14:54:37.860Z,7.13
2022-09-12T14:57:33.486Z,10.52
2022-09-12T15:00:30.209Z,10.30
2022-09-12T15:03:30.844Z,11.35
2022-09-12T15:05:58.796Z,7.78
2022-09-12T15:08:26.936Z,17.20
2022-09-12T15:10:54.036Z,7.43
2022-09-12T15:13:23.861Z,9.35
2022-09-12T15:15:56.560Z,9.30
2022-09-12T15:18:26.118Z,6.20
2022-09-12T15:20:58.050Z,7.50
2022-09-12T15:23:29.537Z,8.60
2022-09-12T15:25:56.337Z,9.52
2022-09-12T15:28:25.053Z,15.38
2022-09-12T15:30:56.853Z,9.82
2022-09-12T15:33:25.143Z,8.68
2022-09-12T15:35:53.480Z,8.00
2022-09-12T15:38:24.435Z,12.15
2022-09-12T15:40:54.123Z,16.33
2022-09-12T15:43:22.598Z,11.90
2022-09-12T15:45:51.770Z,7.10
2022-09-12T15:48:20.801Z,9.27
2022-09-12T15:50:47.879Z,11.40
2022-09-12T15:53:16.970Z,10.57
2022-09-12T15:55:43.799Z,13.27
2022-09-12T15:58:10.814Z,12.43
2022-09-12T16:00:37.852Z,5.13
2022-09-12T16:03:05.155Z,9.00
2022-09-12T16:05:32.440Z,9.35
2022-09-12T16:07:59.695Z,7.93
2022-09-12T16:10:30.114Z,21.08
2022-09-12T16:12:57.991Z,8.23
2022-09-12T16:15:25.756Z,6.05
2022-09-12T16:17:53.168Z,6.05
2022-09-12T16:20:21.057Z,7.57
2022-09-12T16:22:48.682Z,12.40
2022-09-12T16:25:15.582Z,15.50
2022-09-12T16:27:43.126Z,8.15
2022-09-12T16:30:10.758Z,5.68
2022-09-12T16:32:37.673Z,8.55
2022-09-12T16:35:05.355Z,14.77
2022-09-12T16:37:34.689Z,6.22
2022-09-12T16:40:02.934Z,7.53
2022-09-12T16:42:30.910Z,9.13
2022-09-12T16:44:57.891Z,10.68
2022-09-12T16:47:24.847Z,7.43
2022-09-12T16:49:51.609Z,7.20
2022-09-12T16:52:19.431Z,6.13
2022-09-12T16:54:46.243Z,5.38
2022-09-12T16:57:13.148Z,5.22
2022-09-12T16:59:40.041Z,5.05
2022-09-12T17:02:07.678Z,5.88
2022-09-12T17:04:34.708Z,11.60
2022-09-12T17:07:03.739Z,7.38
2022-09-12T17:09:30.750Z,6.13
2022-09-12T17:11:57.671Z,4.38
2022-09-12T17:14:25.801Z,6.53
2022-09-12T17:16:52.915Z,7.88
2022-09-12T17:19:32.465Z,9.02
2022-09-12T17:21:59.545Z,15.20
2022-09-12T17:24:26.952Z,7.40
2022-09-12T17:26:53.886Z,7.57
2022-09-12T17:29:21.123Z,4.28
2022-09-12T17:31:48.207Z,9.13
2022-09-12T17:34:16.352Z,4.80
2022-09-12T17:36:48.591Z,6.03
2022-09-12T17:39:15.639Z,6.20
2022-09-12T17:41:46.264Z,12.63
2022-09-12T17:44:15.191Z,10.18
2022-09-12T17:46:43.571Z,12.88
2022-09-12T17:49:15.698Z,5.05
2022-09-12T17:51:43.968Z,5.97
2022-09-12T17:54:14.199Z,4.63
2022-09-12T17:59:10.891Z,10.55
2022-09-12T18:01:56.287Z,7.75
2022-09-12T18:04:23.364Z,10.45
2022-09-12T18:06:50.284Z,5.47
2022-09-12T18:09:20.745Z,6.68
2022-09-12T18:11:48.975Z,4.45
2022-09-12T18:14:17.303Z,4.30
2022-09-12T18:16:45.672Z,6.05
2022-09-12T18:19:12.922Z,5.53
2022-09-12T18:21:40.939Z,7.13
2022-09-12T18:24:11.765Z,7.03
2022-09-12T18:26:38.745Z,9.02
2022-09-12T18:29:05.728Z,8.93
2022-09-12T18:31:32.725Z,5.90
2022-09-12T18:34:00.616Z,7.53
2022-09-12T18:36:27.686Z,8.65
2022-09-12T18:38:55.272Z,5.28
2022-09-12T18:41:24.083Z,6.82
2022-09-12T18:43:58.417Z,7.10
2022-09-12T18:46:26.893Z,6.05
2022-09-12T18:48:57.825Z,4.90
2022-09-12T18:51:27.589Z,5.47
2022-09-12T18:53:57.031Z,8.25
2022-09-12T18:56:26.872Z,6.45
2022-09-12T18:58:55.987Z,10.30
2022-09-12T19:01:25.367Z,6.07
2022-09-12T19:03:53.981Z,6.18
2022-09-12T19:06:27.971Z,4.47
2022-09-12T19:08:56.502Z,6.43
2022-09-12T19:11:24.616Z,9.77
2022-09-12T19:13:53.224Z,5.68
2022-09-12T19:16:23.403Z,4.63
2022-09-12T19:21:20.158Z,5.32
2022-09-12T19:23:47.107Z,7.00
2022-09-12T19:26:16.054Z,5.85
2022-09-12T19:28:43.752Z,4.40
2022-09-12T19:31:12.995Z,8.00
2022-09-12T19:33:49.798Z,5.53
2022-09-12T19:36:41.265Z,5.85
2022-09-12T19:39:07.448Z,6.05
2022-09-12T19:41:35.050Z,6.93
2022-09-12T19:44:02.292Z,4.63
2022-09-12T19:46:29.220Z,6.45
2022-09-12T19:48:56.118Z,7.05
2022-09-12T19:51:24.329Z,6.80
2022-09-12T19:53:51.544Z,6.50
2022-09-12T19:56:18.631Z,6.85
2022-09-12T19:58:50.860Z,6.32
2022-09-12T20:01:21.393Z,6.47
2022-09-12T20:03:49.313Z,14.60
2022-09-12T20:06:17.763Z,5.90
2022-09-12T20:08:45.000Z,8.25
2022-09-12T20:11:17.776Z,7.35
2022-09-12T20:13:45.577Z,7.35
2022-09-12T20:16:21.798Z,6.40
2022-09-12T20:18:53.653Z,7.20
2022-09-12T20:21:27.526Z,4.72
2022-09-12T20:23:54.340Z,5.47
2022-09-12T20:26:23.474Z,6.28
2022-09-12T20:28:51.257Z,18.30
2022-09-12T20:31:18.268Z,5.50
2022-09-12T20:33:48.593Z,6.65
2022-09-12T20:36:19.874Z,19.30
2022-09-12T20:38:51.721Z,11.00
2022-09-12T20:41:22.662Z,7.35
2022-09-12T20:43:51.429Z,8.52
2022-09-12T20:46:21.924Z,7.15
2022-09-12T20:48:50.470Z,5.65
2022-09-12T20:51:17.859Z,6.22
2022-09-12T20:53:44.752Z,5.90
2022-09-12T20:56:11.786Z,5.93
2022-09-12T20:58:43.573Z,9.55
2022-09-12T21:01:12.490Z,6.47
2022-09-12T21:03:43.329Z,7.50
2022-09-12T21:06:12.851Z,5.22
2022-09-12T21:08:40.050Z,8.30
2022-09-12T21:11:07.377Z,4.63
2022-09-12T21:13:34.725Z,8.32
2022-09-12T21:16:04.171Z,10.55
2022-09-12T21:18:32.034Z,8.30
2022-09-12T21:20:59.067Z,7.35
2022-09-12T21:23:27.360Z,12.30
2022-09-12T21:25:54.696Z,5.70
2022-09-12T21:28:21.776Z,8.48
2022-09-12T21:30:49.941Z,8.30
2022-09-12T21:33:18.412Z,7.32
2022-09-12T21:35:45.932Z,8.90
2022-09-12T21:38:13.335Z,6.85
2022-09-12T21:40:40.279Z,12.77
2022-09-12T21:43:12.317Z,12.20
2022-09-12T21:45:42.286Z,10.13
2022-09-12T21:48:09.129Z,14.60
2022-09-12T21:50:36.042Z,13.50
2022-09-12T21:53:03.247Z,7.63
2022-09-12T21:55:30.014Z,9.50
2022-09-12T21:57:57.116Z,8.95
2022-09-12T22:00:24.419Z,18.73
2022-09-12T22:02:51.361Z,11.07
2022-09-12T22:05:24.726Z,6.80
2022-09-12T22:07:51.865Z,5.68
2022-09-12T22:10:18.768Z,6.35
2022-09-12T22:12:46.524Z,11.38
2022-09-12T22:15:38.986Z,6.72
2022-09-12T22:18:01.191Z,12.10
2022-09-12T22:20:28.247Z,14.50
2022-09-12T22:23:13.384Z,6.47
2022-09-12T22:25:40.465Z,8.40
2022-09-12T22:28:07.450Z,7.78
2022-09-12T22:30:34.323Z,18.00
2022-09-12T22:33:01.559Z,7.07
2022-09-12T22:35:28.501Z,13.73
2022-09-12T22:37:55.205Z,9.40
2022-09-12T22:40:22.024Z,10.23
2022-09-12T22:42:52.454Z,14.70
2022-09-12T22:45:20.053Z,7.88
2022-09-12T22:47:48.251Z,6.13
2022-09-12T22:50:17.282Z,8.20
2022-09-12T22:52:44.486Z,9.05
2022-09-12T22:55:11.731Z,6.53
2022-09-12T22:57:38.558Z,7.38
2022-09-12T23:00:08.723Z,7.93
2022-09-12T23:05:06.233Z,7.15
2022-09-12T23:07:33.758Z,6.68
2022-09-12T23:10:01.206Z,10.13
2022-09-12T23:12:28.138Z,6.38
2022-09-12T23:14:54.919Z,7.10
2022-09-12T23:17:21.957Z,6.65
2022-09-12T23:19:48.862Z,15.25
2022-09-12T23:22:15.828Z,10.05
2022-09-12T23:24:42.672Z,7.82
2022-09-12T23:27:09.498Z,9.23
2022-09-12T23:29:36.394Z,7.22
2022-09-12T23:32:06.958Z,10.27
2022-09-12T23:34:34.166Z,22.17
2022-09-12T23:37:01.006Z,10.82
2022-09-12T23:39:27.891Z,7.93
2022-09-12T23:41:55.077Z,9.93
2022-09-12T23:44:21.854Z,9.45
2022-09-12T23:46:48.760Z,10.48
2022-09-12T23:49:15.621Z,10.05
2022-09-12T23:51:42.458Z,12.05
2022-09-12T23:54:09.292Z,8.77
2022-09-12T23:56:36.077Z,10.25
2022-09-12T23:59:02.978Z,7.68
